sensor_id;sensor_type;location;lat;lon;timestamp;pressure;altitude;pressure_sealevel;temperature;humidity
49102;BME280;34913;47.520;19.186;2023-05-18T00:00:34;99957.78;;;12.43;100.00
49102;BME280;34913;47.520;19.186;2023-05-18T00:02:59;99959.88;;;12.39;100.00
49102;BME280;34913;47.520;19.186;2023-05-18T00:05:26;99956.81;;;12.34;100.00
49102;BME280;34913;47.520;19.186;2023-05-18T00:08:01;99958.50;;;12.35;100.00
49102;BME280;34913;47.520;19.186;2023-05-18T00:10:27;99962.13;;;12.34;100.00
49102;BME280;34913;47.520;19.186;2023-05-18T00:12:52;99964.22;;;12.30;100.00
49102;BME280;34913;47.520;19.186;2023-05-18T00:15:18;99964.78;;;12.24;100.00
49102;BME280;34913;47.520;19.186;2023-05-18T00:17:43;99969.53;;;12.21;100.00
49102;BME280;34913;47.520;19.186;2023-05-18T00:20:10;99971.22;;;12.22;100.00
49102;BME280;34913;47.520;19.186;2023-05-18T00:22:36;99967.28;;;12.16;100.00
49102;BME280;34913;47.520;19.186;2023-05-18T00:25:03;99964.19;;;12.11;100.00
49102;BME280;34913;47.520;19.186;2023-05-18T00:27:29;99968.81;;;12.09;100.00
49102;BME280;34913;47.520;19.186;2023-05-18T00:29:54;99972.44;;;12.08;100.00
49102;BME280;34913;47.520;19.186;2023-05-18T00:32:20;99977.50;;;12.11;100.00
49102;BME280;34913;47.520;19.186;2023-05-18T00:34:45;99973.56;;;12.06;100.00
49102;BME280;34913;47.520;19.186;2023-05-18T00:37:10;99969.91;;;12.07;100.00
49102;BME280;34913;47.520;19.186;2023-05-18T00:39:36;99968.09;;;12.07;100.00
49102;BME280;34913;47.520;19.186;2023-05-18T00:42:01;99968.94;;;12.08;100.00
49102;BME280;34913;47.520;19.186;2023-05-18T00:44:27;99968.00;;;12.09;100.00
49102;BME280;34913;47.520;19.186;2023-05-18T00:46:52;99969.66;;;12.10;100.00
49102;BME280;34913;47.520;19.186;2023-05-18T00:49:18;99965.19;;;12.10;100.00
49102;BME280;34913;47.520;19.186;2023-05-18T00:51:44;99969.38;;;12.13;100.00
49102;BME280;34913;47.520;19.186;2023-05-18T00:54:10;99970.81;;;12.17;100.00
49102;BME280;34913;47.520;19.186;2023-05-18T00:56:36;99965.06;;;12.21;100.00
49102;BME280;34913;47.520;19.186;2023-05-18T00:59:06;99971.50;;;12.19;100.00
49102;BME280;34913;47.520;19.186;2023-05-18T01:01:33;99973.47;;;12.17;100.00
49102;BME280;34913;47.520;19.186;2023-05-18T01:04:01;99970.38;;;12.21;100.00
49102;BME280;34913;47.520;19.186;2023-05-18T01:06:28;99967.56;;;12.13;100.00
49102;BME280;34913;47.520;19.186;2023-05-18T01:09:00;99972.72;;;12.15;100.00
49102;BME280;34913;47.520;19.186;2023-05-18T01:11:39;99981.84;;;12.22;100.00
49102;BME280;34913;47.520;19.186;2023-05-18T01:17:00;99979.63;;;12.17;100.00
49102;BME280;34913;47.520;19.186;2023-05-18T01:25:23;99983.69;;;12.21;100.00
49102;BME280;34913;47.520;19.186;2023-05-18T01:27:54;99994.47;;;12.20;100.00
49102;BME280;34913;47.520;19.186;2023-05-18T01:30:21;99983.66;;;12.12;100.00
49102;BME280;34913;47.520;19.186;2023-05-18T01:32:47;99988.56;;;12.16;100.00
49102;BME280;34913;47.520;19.186;2023-05-18T01:35:13;99995.44;;;12.19;100.00
49102;BME280;34913;47.520;19.186;2023-05-18T01:37:38;99995.16;;;12.22;100.00
49102;BME280;34913;47.520;19.186;2023-05-18T01:40:05;99993.63;;;12.19;100.00
49102;BME280;34913;47.520;19.186;2023-05-18T01:42:33;99999.50;;;12.23;100.00
49102;BME280;34913;47.520;19.186;2023-05-18T01:45:06;99998.38;;;12.16;100.00
49102;BME280;34913;47.520;19.186;2023-05-18T01:47:34;100004.28;;;12.19;100.00
49102;BME280;34913;47.520;19.186;2023-05-18T01:50:07;99999.94;;;12.18;100.00
49102;BME280;34913;47.520;19.186;2023-05-18T01:52:43;99996.13;;;12.11;100.00
49102;BME280;34913;47.520;19.186;2023-05-18T01:55:11;100000.59;;;12.11;100.00
49102;BME280;34913;47.520;19.186;2023-05-18T01:57:40;100002.81;;;12.06;100.00
49102;BME280;34913;47.520;19.186;2023-05-18T02:00:07;100008.28;;;12.04;100.00
49102;BME280;34913;47.520;19.186;2023-05-18T02:02:34;100008.56;;;12.01;100.00
49102;BME280;34913;47.520;19.186;2023-05-18T02:05:00;100011.50;;;12.08;100.00
49102;BME280;34913;47.520;19.186;2023-05-18T02:07:26;100007.16;;;11.97;100.00
49102;BME280;34913;47.520;19.186;2023-05-18T02:09:51;100014.97;;;11.89;100.00
49102;BME280;34913;47.520;19.186;2023-05-18T02:12:16;100018.28;;;11.81;100.00
49102;BME280;34913;47.520;19.186;2023-05-18T02:14:42;100008.44;;;11.72;100.00
49102;BME280;34913;47.520;19.186;2023-05-18T02:17:07;100021.03;;;11.70;100.00
49102;BME280;34913;47.520;19.186;2023-05-18T02:19:33;100020.00;;;11.61;100.00
49102;BME280;34913;47.520;19.186;2023-05-18T02:22:05;100026.09;;;11.52;100.00
49102;BME280;34913;47.520;19.186;2023-05-18T02:24:33;100026.53;;;11.57;100.00
49102;BME280;34913;47.520;19.186;2023-05-18T02:26:59;100026.59;;;11.67;100.00
49102;BME280;34913;47.520;19.186;2023-05-18T02:29:25;100021.41;;;11.65;100.00
49102;BME280;34913;47.520;19.186;2023-05-18T02:31:51;100026.59;;;11.67;100.00
49102;BME280;34913;47.520;19.186;2023-05-18T02:34:16;100025.69;;;11.57;100.00
49102;BME280;34913;47.520;19.186;2023-05-18T02:36:43;100027.38;;;11.58;100.00
49102;BME280;34913;47.520;19.186;2023-05-18T02:39:10;100032.97;;;11.55;100.00
49102;BME280;34913;47.520;19.186;2023-05-18T02:41:36;100030.69;;;11.50;100.00
49102;BME280;34913;47.520;19.186;2023-05-18T02:44:02;100033.09;;;11.53;100.00
49102;BME280;34913;47.520;19.186;2023-05-18T02:46:28;100026.69;;;11.56;100.00
49102;BME280;34913;47.520;19.186;2023-05-18T02:48:53;100028.50;;;11.55;100.00
49102;BME280;34913;47.520;19.186;2023-05-18T02:51:19;100027.00;;;11.62;100.00
49102;BME280;34913;47.520;19.186;2023-05-18T02:53:45;100021.94;;;11.59;100.00
49102;BME280;34913;47.520;19.186;2023-05-18T02:56:11;100029.69;;;11.72;100.00
49102;BME280;34913;47.520;19.186;2023-05-18T02:58:37;100032.66;;;11.79;100.00
49102;BME280;34913;47.520;19.186;2023-05-18T03:01:03;100033.75;;;11.76;100.00
49102;BME280;34913;47.520;19.186;2023-05-18T03:03:32;100023.72;;;11.80;100.00
49102;BME280;34913;47.520;19.186;2023-05-18T03:05:59;100031.59;;;11.81;100.00
49102;BME280;34913;47.520;19.186;2023-05-18T03:08:26;100024.16;;;11.85;100.00
49102;BME280;34913;47.520;19.186;2023-05-18T03:10:53;100036.63;;;11.84;100.00
49102;BME280;34913;47.520;19.186;2023-05-18T03:13:19;100030.84;;;11.79;100.00
49102;BME280;34913;47.520;19.186;2023-05-18T03:15:44;100034.88;;;11.73;100.00
49102;BME280;34913;47.520;19.186;2023-05-18T03:18:10;100032.81;;;11.77;100.00
49102;BME280;34913;47.520;19.186;2023-05-18T03:20:36;100038.22;;;11.75;100.00
49102;BME280;34913;47.520;19.186;2023-05-18T03:23:02;100037.16;;;11.78;100.00
49102;BME280;34913;47.520;19.186;2023-05-18T03:25:28;100039.81;;;11.78;100.00
49102;BME280;34913;47.520;19.186;2023-05-18T03:27:54;100038.59;;;11.82;100.00
49102;BME280;34913;47.520;19.186;2023-05-18T03:30:20;100041.38;;;11.81;100.00
49102;BME280;34913;47.520;19.186;2023-05-18T03:32:46;100044.75;;;11.83;100.00
49102;BME280;34913;47.520;19.186;2023-05-18T03:35:13;100046.94;;;11.78;100.00
49102;BME280;34913;47.520;19.186;2023-05-18T03:37:39;100047.78;;;11.78;100.00
49102;BME280;34913;47.520;19.186;2023-05-18T03:40:09;100055.75;;;11.78;100.00
49102;BME280;34913;47.520;19.186;2023-05-18T03:42:36;100053.09;;;11.78;100.00
49102;BME280;34913;47.520;19.186;2023-05-18T03:45:02;100060.34;;;11.76;100.00
49102;BME280;34913;47.520;19.186;2023-05-18T03:47:27;100066.91;;;11.72;100.00
49102;BME280;34913;47.520;19.186;2023-05-18T03:49:54;100063.81;;;11.67;100.00
49102;BME280;34913;47.520;19.186;2023-05-18T03:52:19;100062.13;;;11.66;100.00
49102;BME280;34913;47.520;19.186;2023-05-18T03:54:49;100055.31;;;11.73;100.00
49102;BME280;34913;47.520;19.186;2023-05-18T03:57:18;100063.09;;;11.65;100.00
49102;BME280;34913;47.520;19.186;2023-05-18T03:59:44;100067.44;;;11.66;100.00
49102;BME280;34913;47.520;19.186;2023-05-18T04:02:10;100065.94;;;11.73;100.00
49102;BME280;34913;47.520;19.186;2023-05-18T04:04:38;100066.47;;;11.67;100.00
49102;BME280;34913;47.520;19.186;2023-05-18T04:07:06;100067.31;;;11.67;100.00
49102;BME280;34913;47.520;19.186;2023-05-18T04:09:32;100072.06;;;11.64;100.00
49102;BME280;34913;47.520;19.186;2023-05-18T04:11:58;100078.06;;;11.66;100.00
49102;BME280;34913;47.520;19.186;2023-05-18T04:14:23;100080.69;;;11.56;100.00
49102;BME280;34913;47.520;19.186;2023-05-18T04:16:52;100077.97;;;11.46;100.00
49102;BME280;34913;47.520;19.186;2023-05-18T04:19:18;100072.19;;;11.41;100.00
49102;BME280;34913;47.520;19.186;2023-05-18T04:21:43;100087.13;;;11.54;100.00
49102;BME280;34913;47.520;19.186;2023-05-18T04:24:12;100086.84;;;11.57;100.00
49102;BME280;34913;47.520;19.186;2023-05-18T04:26:39;100086.56;;;11.60;100.00
49102;BME280;34913;47.520;19.186;2023-05-18T04:29:05;100087.41;;;11.60;100.00
49102;BME280;34913;47.520;19.186;2023-05-18T04:31:32;100083.91;;;11.60;100.00
49102;BME280;34913;47.520;19.186;2023-05-18T04:33:59;100095.53;;;11.59;100.00
49102;BME280;34913;47.520;19.186;2023-05-18T04:36:25;100098.19;;;11.59;100.00
49102;BME280;34913;47.520;19.186;2023-05-18T04:38:57;100100.59;;;11.62;100.00
49102;BME280;34913;47.520;19.186;2023-05-18T04:41:24;100093.19;;;11.65;100.00
49102;BME280;34913;47.520;19.186;2023-05-18T04:43:49;100101.03;;;11.67;100.00
49102;BME280;34913;47.520;19.186;2023-05-18T04:46:15;100099.63;;;11.63;100.00
49102;BME280;34913;47.520;19.186;2023-05-18T04:48:43;100102.78;;;11.57;100.00
49102;BME280;34913;47.520;19.186;2023-05-18T04:51:08;100099.75;;;11.61;100.00
49102;BME280;34913;47.520;19.186;2023-05-18T04:53:34;100101.53;;;11.61;100.00
49102;BME280;34913;47.520;19.186;2023-05-18T04:56:03;100100.84;;;11.59;100.00
49102;BME280;34913;47.520;19.186;2023-05-18T04:58:29;100092.44;;;11.54;100.00
49102;BME280;34913;47.520;19.186;2023-05-18T05:00:55;100098.03;;;11.60;100.00
49102;BME280;34913;47.520;19.186;2023-05-18T05:03:21;100103.13;;;11.63;100.00
49102;BME280;34913;47.520;19.186;2023-05-18T05:05:46;100101.44;;;11.62;100.00
49102;BME280;34913;47.520;19.186;2023-05-18T05:08:12;100102.94;;;11.55;100.00
49102;BME280;34913;47.520;19.186;2023-05-18T05:10:37;100099.09;;;11.48;100.00
49102;BME280;34913;47.520;19.186;2023-05-18T05:13:03;100108.06;;;11.47;100.00
49102;BME280;34913;47.520;19.186;2023-05-18T05:15:28;100104.16;;;11.51;100.00
49102;BME280;34913;47.520;19.186;2023-05-18T05:17:54;100110.16;;;11.53;100.00
49102;BME280;34913;47.520;19.186;2023-05-18T05:20:19;100107.78;;;11.50;100.00
49102;BME280;34913;47.520;19.186;2023-05-18T05:22:45;100115.50;;;11.53;100.00
49102;BME280;34913;47.520;19.186;2023-05-18T05:25:11;100117.91;;;11.56;100.00
49102;BME280;34913;47.520;19.186;2023-05-18T05:27:36;100115.81;;;11.60;100.00
49102;BME280;34913;47.520;19.186;2023-05-18T05:30:02;100120.88;;;11.63;100.00
49102;BME280;34913;47.520;19.186;2023-05-18T05:32:28;100123.56;;;11.63;100.00
49102;BME280;34913;47.520;19.186;2023-05-18T05:34:53;100125.38;;;11.62;100.00
49102;BME280;34913;47.520;19.186;2023-05-18T05:37:18;100132.59;;;11.60;100.00
49102;BME280;34913;47.520;19.186;2023-05-18T05:39:44;100129.94;;;11.60;100.00
49102;BME280;34913;47.520;19.186;2023-05-18T05:42:09;100138.84;;;11.50;100.00
49102;BME280;34913;47.520;19.186;2023-05-18T05:44:35;100134.00;;;11.55;100.00
49102;BME280;34913;47.520;19.186;2023-05-18T05:47:01;100136.97;;;11.61;100.00
49102;BME280;34913;47.520;19.186;2023-05-18T05:49:27;100134.75;;;11.66;100.00
49102;BME280;34913;47.520;19.186;2023-05-18T05:51:53;100137.03;;;11.71;100.00
49102;BME280;34913;47.520;19.186;2023-05-18T05:54:18;100131.25;;;11.66;100.00
49102;BME280;34913;47.520;19.186;2023-05-18T05:56:43;100141.56;;;11.59;100.00
49102;BME280;34913;47.520;19.186;2023-05-18T05:59:09;100138.06;;;11.59;100.00
49102;BME280;34913;47.520;19.186;2023-05-18T06:01:35;100135.25;;;11.60;100.00
49102;BME280;34913;47.520;19.186;2023-05-18T06:04:00;100141.22;;;11.53;100.00
49102;BME280;34913;47.520;19.186;2023-05-18T06:06:28;100141.97;;;11.55;100.00
49102;BME280;34913;47.520;19.186;2023-05-18T06:08:53;100137.22;;;11.58;100.00
49102;BME280;34913;47.520;19.186;2023-05-18T06:11:19;100138.38;;;11.65;100.00
49102;BME280;34913;47.520;19.186;2023-05-18T06:13:45;100151.53;;;11.67;100.00
49102;BME280;34913;47.520;19.186;2023-05-18T06:16:10;100154.00;;;11.59;100.00
49102;BME280;34913;47.520;19.186;2023-05-18T06:18:36;100154.78;;;11.50;100.00
49102;BME280;34913;47.520;19.186;2023-05-18T06:21:01;100155.13;;;11.56;100.00
49102;BME280;34913;47.520;19.186;2023-05-18T06:23:26;100159.31;;;11.59;100.00
49102;BME280;34913;47.520;19.186;2023-05-18T06:25:52;100157.13;;;11.64;100.00
49102;BME280;34913;47.520;19.186;2023-05-18T06:28:17;100167.16;;;11.60;100.00
49102;BME280;34913;47.520;19.186;2023-05-18T06:30:43;100163.88;;;11.47;100.00
49102;BME280;34913;47.520;19.186;2023-05-18T06:33:09;100169.63;;;11.52;100.00
49102;BME280;34913;47.520;19.186;2023-05-18T06:35:35;100166.66;;;11.45;100.00
49102;BME280;34913;47.520;19.186;2023-05-18T06:38:00;100171.72;;;11.49;100.00
49102;BME280;34913;47.520;19.186;2023-05-18T06:40:25;100175.13;;;11.39;100.00
49102;BME280;34913;47.520;19.186;2023-05-18T06:42:51;100173.75;;;11.45;100.00
49102;BME280;34913;47.520;19.186;2023-05-18T06:45:16;100173.03;;;11.54;100.00
49102;BME280;34913;47.520;19.186;2023-05-18T06:47:44;100180.66;;;11.48;100.00
49102;BME280;34913;47.520;19.186;2023-05-18T06:50:09;100174.94;;;11.52;100.00
49102;BME280;34913;47.520;19.186;2023-05-18T06:52:35;100177.38;;;11.55;100.00
49102;BME280;34913;47.520;19.186;2023-05-18T06:55:00;100181.09;;;11.53;100.00
49102;BME280;34913;47.520;19.186;2023-05-18T06:57:26;100187.03;;;11.56;100.00
49102;BME280;34913;47.520;19.186;2023-05-18T06:59:52;100182.47;;;11.47;100.00
49102;BME280;34913;47.520;19.186;2023-05-18T07:02:19;100187.59;;;11.39;100.00
49102;BME280;34913;47.520;19.186;2023-05-18T07:04:45;100188.94;;;11.33;100.00
49102;BME280;34913;47.520;19.186;2023-05-18T07:07:11;100191.94;;;11.40;100.00
49102;BME280;34913;47.520;19.186;2023-05-18T07:09:36;100189.13;;;11.41;100.00
49102;BME280;34913;47.520;19.186;2023-05-18T07:12:02;100197.66;;;11.56;100.00
49102;BME280;34913;47.520;19.186;2023-05-18T07:14:28;100189.28;;;11.61;100.00
49102;BME280;34913;47.520;19.186;2023-05-18T07:16:53;100204.84;;;11.65;100.00
49102;BME280;34913;47.520;19.186;2023-05-18T07:19:18;100196.38;;;11.71;100.00
49102;BME280;34913;47.520;19.186;2023-05-18T07:21:44;100198.84;;;11.84;100.00
49102;BME280;34913;47.520;19.186;2023-05-18T07:24:09;100200.44;;;11.87;100.00
49102;BME280;34913;47.520;19.186;2023-05-18T07:26:35;100199.22;;;11.80;100.00
49102;BME280;34913;47.520;19.186;2023-05-18T07:29:00;100209.94;;;11.89;100.00
49102;BME280;34913;47.520;19.186;2023-05-18T07:31:26;100210.66;;;11.91;100.00
49102;BME280;34913;47.520;19.186;2023-05-18T07:33:51;100208.28;;;11.88;100.00
49102;BME280;34913;47.520;19.186;2023-05-18T07:36:17;100219.66;;;11.79;100.00
49102;BME280;34913;47.520;19.186;2023-05-18T07:38:42;100216.97;;;11.90;100.00
49102;BME280;34913;47.520;19.186;2023-05-18T07:41:08;100220.25;;;11.83;100.00
49102;BME280;34913;47.520;19.186;2023-05-18T07:43:34;100225.78;;;11.91;100.00
49102;BME280;34913;47.520;19.186;2023-05-18T07:45:59;100227.16;;;11.85;100.00
49102;BME280;34913;47.520;19.186;2023-05-18T07:48:25;100224.81;;;11.92;100.00
49102;BME280;34913;47.520;19.186;2023-05-18T07:50:50;100219.56;;;12.01;100.00
49102;BME280;34913;47.520;19.186;2023-05-18T07:53:16;100226.28;;;12.06;100.00
49102;BME280;34913;47.520;19.186;2023-05-18T07:55:41;100218.25;;;11.96;100.00
49102;BME280;34913;47.520;19.186;2023-05-18T07:58:07;100224.16;;;11.99;100.00
49102;BME280;34913;47.520;19.186;2023-05-18T08:00:33;100226.56;;;12.02;100.00
49102;BME280;34913;47.520;19.186;2023-05-18T08:02:58;100231.09;;;12.12;100.00
49102;BME280;34913;47.520;19.186;2023-05-18T08:05:25;100231.28;;;12.20;100.00
49102;BME280;34913;47.520;19.186;2023-05-18T08:07:51;100235.13;;;12.06;100.00
49102;BME280;34913;47.520;19.186;2023-05-18T08:10:16;100236.81;;;12.07;100.00
49102;BME280;34913;47.520;19.186;2023-05-18T08:12:42;100231.38;;;12.09;100.00
49102;BME280;34913;47.520;19.186;2023-05-18T08:15:08;100237.19;;;12.23;100.00
49102;BME280;34913;47.520;19.186;2023-05-18T08:17:34;100233.28;;;12.27;100.00
49102;BME280;34913;47.520;19.186;2023-05-18T08:20:00;100235.50;;;12.22;100.00
49102;BME280;34913;47.520;19.186;2023-05-18T08:22:25;100245.63;;;12.28;100.00
49102;BME280;34913;47.520;19.186;2023-05-18T08:24:50;100238.22;;;12.32;100.00
49102;BME280;34913;47.520;19.186;2023-05-18T08:27:16;100249.41;;;12.26;100.00
49102;BME280;34913;47.520;19.186;2023-05-18T08:29:41;100238.03;;;12.24;100.00
49102;BME280;34913;47.520;19.186;2023-05-18T08:32:07;100239.25;;;12.41;100.00
49102;BME280;34913;47.520;19.186;2023-05-18T08:34:33;100241.91;;;12.41;100.00
49102;BME280;34913;47.520;19.186;2023-05-18T08:36:58;100239.03;;;12.53;100.00
49102;BME280;34913;47.520;19.186;2023-05-18T08:39:24;100238.81;;;12.66;100.00
49102;BME280;34913;47.520;19.186;2023-05-18T08:44:29;100244.03;;;12.77;100.00
49102;BME280;34913;47.520;19.186;2023-05-18T08:46:59;100251.63;;;12.82;100.00
49102;BME280;34913;47.520;19.186;2023-05-18T08:49:25;100246.84;;;12.85;100.00
49102;BME280;34913;47.520;19.186;2023-05-18T08:51:56;100238.94;;;13.05;100.00
49102;BME280;34913;47.520;19.186;2023-05-18T08:54:25;100240.13;;;13.22;100.00
49102;BME280;34913;47.520;19.186;2023-05-18T08:56:51;100243.47;;;13.24;100.00
49102;BME280;34913;47.520;19.186;2023-05-18T08:59:25;100246.59;;;13.38;100.00
49102;BME280;34913;47.520;19.186;2023-05-18T09:01:51;100240.13;;;13.31;100.00
49102;BME280;34913;47.520;19.186;2023-05-18T09:04:19;100238.72;;;13.27;100.00
49102;BME280;34913;47.520;19.186;2023-05-18T09:06:47;100242.78;;;13.22;100.00
49102;BME280;34913;47.520;19.186;2023-05-18T09:09:13;100245.16;;;13.25;100.00
49102;BME280;34913;47.520;19.186;2023-05-18T09:11:39;100238.72;;;13.27;100.00
49102;BME280;34913;47.520;19.186;2023-05-18T09:14:05;100233.81;;;13.32;100.00
49102;BME280;34913;47.520;19.186;2023-05-18T09:16:31;100243.53;;;13.43;100.00
49102;BME280;34913;47.520;19.186;2023-05-18T09:18:56;100242.53;;;13.83;100.00
49102;BME280;34913;47.520;19.186;2023-05-18T09:21:22;100234.91;;;13.97;100.00
49102;BME280;34913;47.520;19.186;2023-05-18T09:23:48;100240.19;;;14.36;100.00
49102;BME280;34913;47.520;19.186;2023-05-18T09:26:14;100244.31;;;14.68;100.00
49102;BME280;34913;47.520;19.186;2023-05-18T09:28:41;100243.31;;;14.78;100.00
49102;BME280;34913;47.520;19.186;2023-05-18T09:31:17;100247.94;;;14.76;100.00
49102;BME280;34913;47.520;19.186;2023-05-18T09:33:44;100254.94;;;14.87;100.00
49102;BME280;34913;47.520;19.186;2023-05-18T09:36:11;100246.91;;;14.87;100.00
49102;BME280;34913;47.520;19.186;2023-05-18T09:38:44;100249.13;;;14.92;100.00
49102;BME280;34913;47.520;19.186;2023-05-18T09:41:17;100255.78;;;14.88;100.00
49102;BME280;34913;47.520;19.186;2023-05-18T09:43:43;100250.59;;;14.86;99.54
49102;BME280;34913;47.520;19.186;2023-05-18T09:46:11;100251.13;;;14.90;100.00
49102;BME280;34913;47.520;19.186;2023-05-18T09:48:41;100258.81;;;14.93;100.00
49102;BME280;34913;47.520;19.186;2023-05-18T09:51:10;100254.63;;;14.90;100.00
49102;BME280;34913;47.520;19.186;2023-05-18T09:53:39;100263.31;;;15.02;100.00
49102;BME280;34913;47.520;19.186;2023-05-18T09:56:06;100255.56;;;15.26;100.00
49102;BME280;34913;47.520;19.186;2023-05-18T09:58:36;100259.72;;;15.11;98.21
49102;BME280;34913;47.520;19.186;2023-05-18T10:01:02;100251.31;;;15.06;99.37
49102;BME280;34913;47.520;19.186;2023-05-18T10:03:33;100263.16;;;15.03;96.12
49102;BME280;34913;47.520;19.186;2023-05-18T10:06:08;100258.78;;;14.75;98.09
49102;BME280;34913;47.520;19.186;2023-05-18T10:08:35;100260.38;;;14.95;98.63
49102;BME280;34913;47.520;19.186;2023-05-18T10:11:01;100258.69;;;15.22;98.04
49102;BME280;34913;47.520;19.186;2023-05-18T10:13:28;100256.34;;;15.36;96.89
49102;BME280;34913;47.520;19.186;2023-05-18T10:15:57;100254.81;;;15.52;95.68
49102;BME280;34913;47.520;19.186;2023-05-18T10:18:31;100256.34;;;15.54;94.68
49102;BME280;34913;47.520;19.186;2023-05-18T10:20:58;100246.72;;;15.44;93.41
49102;BME280;34913;47.520;19.186;2023-05-18T10:23:25;100248.47;;;15.53;96.13
49102;BME280;34913;47.520;19.186;2023-05-18T10:25:52;100247.59;;;15.62;96.89
49102;BME280;34913;47.520;19.186;2023-05-18T10:28:24;100255.16;;;15.67;94.30
49102;BME280;34913;47.520;19.186;2023-05-18T10:30:57;100261.44;;;15.75;95.56
49102;BME280;34913;47.520;19.186;2023-05-18T10:33:24;100255.81;;;15.86;96.07
49102;BME280;34913;47.520;19.186;2023-05-18T10:35:51;100257.84;;;15.67;95.56
49102;BME280;34913;47.520;19.186;2023-05-18T10:38:24;100257.84;;;15.39;99.54
49102;BME280;34913;47.520;19.186;2023-05-18T10:40:55;100257.06;;;15.11;96.19
49102;BME280;34913;47.520;19.186;2023-05-18T10:43:22;100269.09;;;14.97;97.40
49102;BME280;34913;47.520;19.186;2023-05-18T10:45:58;100274.47;;;14.50;96.36
49102;BME280;34913;47.520;19.186;2023-05-18T10:48:25;100270.84;;;14.32;98.56
49102;BME280;34913;47.520;19.186;2023-05-18T10:50:53;100265.06;;;14.37;100.00
49102;BME280;34913;47.520;19.186;2023-05-18T10:53:21;100264.09;;;14.38;100.00
49102;BME280;34913;47.520;19.186;2023-05-18T10:55:47;100258.03;;;14.36;100.00
49102;BME280;34913;47.520;19.186;2023-05-18T10:58:15;100268.88;;;14.24;100.00
49102;BME280;34913;47.520;19.186;2023-05-18T11:00:45;100261.28;;;14.30;100.00
49102;BME280;34913;47.520;19.186;2023-05-18T11:03:17;100262.38;;;14.37;100.00
49102;BME280;34913;47.520;19.186;2023-05-18T11:05:43;100265.34;;;14.34;100.00
49102;BME280;34913;47.520;19.186;2023-05-18T11:08:12;100266.94;;;14.17;100.00
49102;BME280;34913;47.520;19.186;2023-05-18T11:10:58;100263.56;;;14.15;100.00
49102;BME280;34913;47.520;19.186;2023-05-18T11:13:30;100267.19;;;14.14;100.00
49102;BME280;34913;47.520;19.186;2023-05-18T11:18:42;100268.75;;;14.16;100.00
49102;BME280;34913;47.520;19.186;2023-05-18T11:29:18;100269.16;;;14.31;100.00
49102;BME280;34913;47.520;19.186;2023-05-18T11:31:49;100281.53;;;14.32;100.00
49102;BME280;34913;47.520;19.186;2023-05-18T11:34:55;100274.19;;;14.91;100.00
49102;BME280;34913;47.520;19.186;2023-05-18T11:40:42;100283.47;;;15.42;97.04
49102;BME280;34913;47.520;19.186;2023-05-18T11:42:57;100282.16;;;15.28;99.18
49102;BME280;34913;47.520;19.186;2023-05-18T11:45:24;100278.13;;;15.14;96.89
49102;BME280;34913;47.520;19.186;2023-05-18T11:47:55;100283.13;;;14.99;98.96
49102;BME280;34913;47.520;19.186;2023-05-18T11:50:21;100281.81;;;14.86;96.65
49102;BME280;34913;47.520;19.186;2023-05-18T11:52:50;100285.81;;;14.72;97.17
49102;BME280;34913;47.520;19.186;2023-05-18T11:55:18;100290.75;;;14.57;97.34
49102;BME280;34913;47.520;19.186;2023-05-18T11:57:49;100286.84;;;14.51;98.25
49102;BME280;34913;47.520;19.186;2023-05-18T12:00:19;100284.16;;;14.42;100.00
49102;BME280;34913;47.520;19.186;2023-05-18T12:02:46;100278.56;;;14.35;100.00
49102;BME280;34913;47.520;19.186;2023-05-18T12:05:13;100288.97;;;14.29;97.93
49102;BME280;34913;47.520;19.186;2023-05-18T12:07:39;100292.47;;;14.29;100.00
49102;BME280;34913;47.520;19.186;2023-05-18T12:10:09;100292.91;;;14.34;98.88
49102;BME280;34913;47.520;19.186;2023-05-18T12:12:35;100296.28;;;14.27;97.97
49102;BME280;34913;47.520;19.186;2023-05-18T12:15:06;100292.06;;;14.34;100.00
49102;BME280;34913;47.520;19.186;2023-05-18T12:17:42;100288.97;;;14.48;100.00
49102;BME280;34913;47.520;19.186;2023-05-18T12:20:10;100288.81;;;14.49;100.00
49102;BME280;34913;47.520;19.186;2023-05-18T12:22:39;100295.00;;;14.50;99.80
49102;BME280;34913;47.520;19.186;2023-05-18T12:25:05;100300.63;;;14.47;100.00
49102;BME280;34913;47.520;19.186;2023-05-18T12:27:36;100295.25;;;14.57;100.00
49102;BME280;34913;47.520;19.186;2023-05-18T12:30:03;100290.56;;;14.68;100.00
49102;BME280;34913;47.520;19.186;2023-05-18T12:32:29;100293.41;;;14.67;100.00
49102;BME280;34913;47.520;19.186;2023-05-18T12:34:54;100293.59;;;14.56;100.00
49102;BME280;34913;47.520;19.186;2023-05-18T12:37:23;100293.00;;;14.52;100.00
49102;BME280;34913;47.520;19.186;2023-05-18T12:39:51;100290.16;;;14.73;100.00
49102;BME280;34913;47.520;19.186;2023-05-18T12:42:18;100290.84;;;14.75;99.14
49102;BME280;34913;47.520;19.186;2023-05-18T12:44:44;100287.75;;;14.79;97.94
49102;BME280;34913;47.520;19.186;2023-05-18T12:47:13;100292.72;;;14.92;99.30
49102;BME280;34913;47.520;19.186;2023-05-18T12:49:40;100292.59;;;14.94;96.60
49102;BME280;34913;47.520;19.186;2023-05-18T12:52:15;100292.50;;;14.86;96.52
49102;BME280;34913;47.520;19.186;2023-05-18T12:54:53;100293.63;;;14.83;94.88
49102;BME280;34913;47.520;19.186;2023-05-18T12:57:28;100292.97;;;14.71;94.96